Terminal Aerodrome Forecast
Issued by NWS

Home | Current Version | Previous Version | Text Only | Print | Product List | Glossary On
Versions: 1 2 3 4 5 6 7 8 9 10 11 12 13 14
926
FTUS46 KMTR 282333
TAFOAK
TAF
KOAK 282333Z 2900/3006 27015KT P6SM FEW012
     FM290400 28011KT P6SM SCT015
     FM290800 27007KT P6SM BKN015
     FM291700 23006KT P6SM SCT018
     FM292000 27018KT P6SM SKC=

USA.gov is the U.S. government's official web portal to all federal, state and local government web resources and services.